^^
Station Historical Data
Daily Summary for October 1, 2017 Units:  English    Metric   Both
« Previous Day
Next Day »
Daily Weekly Monthly Yearly Custom
  High: Low: Average:
Temperature: 66.3 °F 44.5 °F 53.7 °F
Dew Point: 48.1 °F 42.8 °F 45.4 °F
Humidity: 96% 46% 76%
Wind Speed: 5.0mph 0.0mph 0.5mph
Wind Gust: 12.0mph - -
Wind- - WSW
Pressure: 30.42 in 30.29 in -
Precipitation: 0.00 in    
Historical Graphs
 
 
Tabular Data for October 1, 2017
Time Temperature Dew Point Pressure Wind Wind Speed Wind Gust Humidity Rainfall Rate (Hourly) Conditions
00:00 50.5 °F 47.4 °F 30.36 in Calm   3.0 mph 89% 0.00 in RA
00:15 50.1 °F 47.0 °F 30.36 in NW 1.0 mph 3.0 mph 89% 0.00 in SCT
00:30 49.9 °F 46.8 °F 30.36 in Calm   4.0 mph 89% 0.00 in SCT
00:45 49.7 °F 46.9 °F 30.36 in Calm   2.0 mph 90% 0.00 in SCT
01:00 49.7 °F 46.9 °F 30.36 in Calm   4.0 mph 90% 0.00 in SCT
01:15 49.3 °F 46.8 °F 30.36 in Calm   1.0 mph 91% 0.00 in BKN
01:30 48.7 °F 46.5 °F 30.37 in Calm   2.0 mph 92% 0.00 in BKN
01:45 48.3 °F 46.1 °F 30.37 in Calm   2.0 mph 92% 0.00 in BKN
02:00 48.0 °F 46.1 °F 30.38 in Calm   2.0 mph 93% 0.00 in BKN
02:15 48.1 °F 46.2 °F 30.37 in Calm   2.0 mph 93% 0.00 in SCT
02:30 48.0 °F 46.1 °F 30.37 in Calm   3.0 mph 93% 0.00 in SCT
02:45 47.8 °F 45.9 °F 30.37 in Calm   2.0 mph 93% 0.00 in SCT
03:00 47.4 °F 45.5 °F 30.36 in Calm   4.0 mph 93% 0.00 in SCT
03:15 47.1 °F 45.2 °F 30.37 in Calm   2.0 mph 93% 0.00 in FEW
03:30 46.9 °F 45.0 °F 30.37 in Calm   2.0 mph 93% 0.00 in FEW
03:45 46.7 °F 45.1 °F 30.37 in Calm   1.0 mph 94% 0.00 in FEW
04:00 46.3 °F 44.7 °F 30.37 in Calm     94% 0.00 in FEW
04:15 45.9 °F 44.3 °F 30.37 in Calm   1.0 mph 94% 0.00 in CLR
04:30 45.6 °F 44.0 °F 30.37 in Calm     94% 0.00 in CLR
04:45 45.7 °F 44.4 °F 30.38 in Calm   2.0 mph 95% 0.00 in CLR
05:00 45.7 °F 44.4 °F 30.38 in Calm     95% 0.00 in CLR
05:15 45.4 °F 43.8 °F 30.38 in Calm     94% 0.00 in CLR
05:30 45.3 °F 44.0 °F 30.38 in Calm     95% 0.00 in CLR
05:45 45.1 °F 43.8 °F 30.38 in Calm     95% 0.00 in CLR
06:00 44.9 °F 43.6 °F 30.38 in Calm     95% 0.00 in CLR
06:15 45.3 °F 44.0 °F 30.39 in Calm     95% 0.00 in CLR
06:30 45.4 °F 44.0 °F 30.39 in Calm   1.0 mph 95% 0.00 in CLR
06:45 44.7 °F 43.4 °F 30.39 in Calm     95% 0.00 in CLR
07:00 44.5 °F 43.2 °F 30.39 in Calm   1.0 mph 95% 0.00 in CLR
07:15 44.6 °F 43.3 °F 30.39 in Calm     95% 0.00 in FEW
07:30 44.6 °F 43.3 °F 30.40 in Calm     95% 0.00 in FEW
07:45 44.8 °F 43.7 °F 30.40 in Calm     96% 0.00 in FEW
08:00 45.0 °F 43.6 °F 30.40 in Calm     95% 0.00 in FEW
08:15 45.6 °F 44.5 °F 30.41 in Calm   1.0 mph 96% 0.00 in CLR
08:30 46.6 °F 45.5 °F 30.41 in Calm   1.0 mph 96% 0.00 in CLR
08:45 48.1 °F 46.4 °F 30.41 in NNW 2.0 mph 5.0 mph 94% 0.00 in CLR
09:00 49.9 °F 46.5 °F 30.42 in North 1.0 mph 5.0 mph 88% 0.00 in CLR
09:15 51.7 °F 47.0 °F 30.42 in Calm   3.0 mph 84% 0.00 in CLR
09:30 53.2 °F 47.5 °F 30.42 in Calm   3.0 mph 81% 0.00 in CLR
09:45 54.5 °F 47.0 °F 30.42 in Calm   3.0 mph 76% 0.00 in CLR
10:00 55.6 °F 47.8 °F 30.42 in South 1.0 mph 5.0 mph 75% 0.00 in CLR
10:15 56.0 °F 47.5 °F 30.42 in WNW 2.0 mph 4.0 mph 73% 0.00 in CLR
10:30 57.4 °F 48.1 °F 30.42 in Calm   4.0 mph 71% 0.00 in CLR
10:45 57.4 °F 47.3 °F 30.42 in NW 1.0 mph 4.0 mph 69% 0.00 in CLR
11:00 57.6 °F 47.1 °F 30.41 in NW 1.0 mph 8.0 mph 68% 0.00 in CLR
11:15 58.7 °F 47.3 °F 30.41 in WNW 2.0 mph 5.0 mph 66% 0.00 in CLR
11:30 59.4 °F 46.8 °F 30.41 in WNW 1.0 mph 6.0 mph 63% 0.00 in CLR
11:45 59.4 °F 45.5 °F 30.41 in NW 3.0 mph 8.0 mph 60% 0.00 in CLR
12:00 59.7 °F 45.4 °F 30.40 in WNW 3.0 mph 6.0 mph 59% 0.00 in CLR
12:15 60.2 °F 45.4 °F 30.39 in NW 3.0 mph 9.0 mph 58% 0.00 in FEW
12:30 60.3 °F 45.5 °F 30.39 in WNW 2.0 mph 12.0 mph 58% 0.00 in FEW
12:45 60.5 °F 42.8 °F 30.38 in WNW 3.0 mph 7.0 mph 52% 0.00 in FEW
13:00 61.6 °F 44.8 °F 30.38 in NNW 2.0 mph 8.0 mph 54% 0.00 in FEW
13:15 61.6 °F 45.3 °F 30.37 in North 1.0 mph 9.0 mph 55% 0.00 in FEW
13:30 61.8 °F 44.5 °F 30.36 in NNW 2.0 mph 9.0 mph 53% 0.00 in FEW
13:45 62.1 °F 44.8 °F 30.36 in NNE 5.0 mph 7.0 mph 53% 0.00 in FEW
14:00 62.7 °F 45.8 °F 30.35 in NNE 1.0 mph 8.0 mph 54% 0.00 in FEW
14:15 63.0 °F 45.6 °F 30.34 in North 3.0 mph 7.0 mph 53% 0.00 in FEW
14:30 63.2 °F 45.3 °F 30.33 in NW 1.0 mph 8.0 mph 52% 0.00 in FEW
14:45 63.8 °F 44.8 °F 30.33 in NNE 1.0 mph 10.0 mph 50% 0.00 in FEW
15:00 64.0 °F 44.9 °F 30.32 in NNW 2.0 mph 7.0 mph 50% 0.00 in FEW
15:15 63.9 °F 44.4 °F 30.32 in NW 2.0 mph 8.0 mph 49% 0.00 in CLR
15:30 64.3 °F 44.2 °F 30.32 in NW 1.0 mph 9.0 mph 48% 0.00 in CLR
15:45 64.9 °F 44.2 °F 30.31 in Calm   8.0 mph 47% 0.00 in CLR
16:00 65.5 °F 44.7 °F 30.31 in NNW 2.0 mph 5.0 mph 47% 0.00 in CLR
16:15 65.4 °F 44.6 °F 30.31 in Calm   7.0 mph 47% 0.00 in CLR
16:30 65.6 °F 44.8 °F 30.30 in Calm   6.0 mph 47% 0.00 in CLR
16:45 66.3 °F 45.5 °F 30.30 in Calm   4.0 mph 47% 0.00 in CLR
17:00 65.2 °F 44.5 °F 30.30 in NNW 1.0 mph 8.0 mph 47% 0.00 in CLR
17:15 65.2 °F 43.9 °F 30.29 in Calm   5.0 mph 46% 0.00 in CLR
17:30 65.6 °F 44.8 °F 30.29 in North 1.0 mph 3.0 mph 47% 0.00 in CLR
17:45 65.0 °F 44.3 °F 30.29 in Calm   4.0 mph 47% 0.00 in CLR
18:00 66.0 °F 44.6 °F 30.30 in NNW 1.0 mph 2.0 mph 46% 0.00 in CLR
18:15 66.0 °F 46.3 °F 30.30 in Calm   2.0 mph 49% 0.00 in CLR
18:30 64.2 °F 46.2 °F 30.30 in Calm     52% 0.00 in CLR
19:00 57.8 °F 46.1 °F 30.29 in Calm     65% 0.00 in CLR
19:15 56.2 °F 45.7 °F 30.30 in Calm     68% 0.00 in CLR
19:30 54.5 °F 46.0 °F 30.30 in Calm     73% 0.00 in CLR
19:45 53.1 °F 45.7 °F 30.30 in Calm     76% 0.00 in CLR
20:00 52.4 °F 45.7 °F 30.30 in Calm     78% 0.00 in CLR
20:15 51.9 °F 45.3 °F 30.31 in Calm     78% 0.00 in CLR
20:30 51.4 °F 45.1 °F 30.31 in Calm     79% 0.00 in CLR
20:45 50.6 °F 45.0 °F 30.32 in Calm     81% 0.00 in CLR
21:00 50.4 °F 45.4 °F 30.32 in Calm     83% 0.00 in CLR
21:15 50.6 °F 45.0 °F 30.32 in Calm     81% 0.00 in CLR
21:30 51.7 °F 45.7 °F 30.32 in Calm     80% 0.00 in CLR
21:45 50.4 °F 45.1 °F 30.32 in Calm     82% 0.00 in CLR
22:00 49.9 °F 45.6 °F 30.32 in Calm     85% 0.00 in CLR
22:15 50.0 °F 46.3 °F 30.32 in Calm     87% 0.00 in CLR
22:30 50.6 °F 46.6 °F 30.32 in Calm     86% 0.00 in CLR
22:45 49.9 °F 46.2 °F 30.32 in Calm     87% 0.00 in CLR
23:00 49.5 °F 46.7 °F 30.32 in Calm     90% 0.00 in CLR
23:15 50.4 °F 47.6 °F 30.32 in Calm     90% 0.00 in CLR
23:30 50.3 °F 47.5 °F 30.32 in Calm     90% 0.00 in CLR
23:45 49.2 °F 46.4 °F 30.33 in Calm     90% 0.00 in CLR
TarryTown NY Weather
Compliments of Weather Underground - 1.5 mb